createdAt,value
2018-07-03T00:00:28.241Z,0.90
2018-07-03T00:02:56.003Z,0.90
2018-07-03T00:05:23.259Z,0.77
2018-07-03T00:07:50.551Z,0.80
2018-07-03T00:10:17.897Z,0.60
2018-07-03T00:12:45.304Z,0.90
2018-07-03T00:15:12.656Z,0.90
2018-07-03T00:17:39.944Z,0.80
2018-07-03T00:20:07.776Z,0.80
2018-07-03T00:22:35.166Z,0.70
2018-07-03T00:25:02.515Z,0.77
2018-07-03T00:27:29.776Z,0.80
2018-07-03T00:29:57.043Z,0.87
2018-07-03T00:32:24.334Z,0.80
2018-07-03T00:34:51.588Z,0.80
2018-07-03T00:37:18.840Z,0.97
2018-07-03T00:39:46.141Z,0.87
2018-07-03T00:42:13.387Z,0.90
2018-07-03T00:44:40.633Z,0.80
2018-07-03T00:47:08.103Z,0.93
2018-07-03T00:49:35.448Z,0.93
2018-07-03T00:52:03.424Z,0.90
2018-07-03T00:54:30.698Z,0.90
2018-07-03T00:56:57.980Z,1.20
2018-07-03T00:59:25.480Z,0.83
2018-07-03T01:01:52.739Z,0.80
2018-07-03T01:04:20.478Z,0.90
2018-07-03T01:06:47.829Z,0.87
2018-07-03T01:09:15.073Z,0.93
2018-07-03T01:11:42.345Z,1.00
2018-07-03T01:14:09.700Z,1.10
2018-07-03T01:16:37.077Z,0.90
2018-07-03T01:19:04.425Z,0.80
2018-07-03T01:21:31.691Z,0.90
2018-07-03T01:23:58.964Z,0.90
2018-07-03T01:26:26.284Z,1.10
2018-07-03T01:28:54.596Z,0.90
2018-07-03T01:31:22.139Z,1.00
2018-07-03T01:33:49.956Z,1.00
2018-07-03T01:36:17.266Z,1.00
2018-07-03T01:38:44.602Z,1.00
2018-07-03T01:41:11.926Z,1.07
2018-07-03T01:43:39.301Z,0.97
2018-07-03T01:46:06.572Z,1.17
2018-07-03T01:48:34.135Z,0.90
2018-07-03T01:51:01.379Z,1.00
2018-07-03T01:53:29.171Z,1.07
2018-07-03T01:55:56.544Z,1.13
2018-07-03T01:58:24.436Z,1.30
2018-07-03T02:00:52.242Z,1.17
2018-07-03T02:03:19.616Z,1.20
2018-07-03T02:05:47.010Z,1.07
2018-07-03T02:08:14.349Z,1.03
2018-07-03T02:10:41.709Z,1.47
2018-07-03T02:13:09.172Z,1.27
2018-07-03T02:15:36.657Z,1.20
2018-07-03T02:18:03.985Z,1.60
2018-07-03T02:20:31.340Z,1.20
2018-07-03T02:22:58.634Z,1.20
2018-07-03T02:25:26.015Z,1.37
2018-07-03T02:27:53.590Z,1.27
2018-07-03T02:30:20.879Z,1.37
2018-07-03T02:32:48.158Z,1.33
2018-07-03T02:35:15.423Z,1.40
2018-07-03T02:37:43.352Z,1.30
2018-07-03T02:40:10.728Z,1.50
2018-07-03T02:42:37.996Z,1.00
2018-07-03T02:45:05.467Z,1.50
2018-07-03T02:47:32.740Z,1.27
2018-07-03T02:50:00.040Z,1.20
2018-07-03T02:52:27.718Z,1.20
2018-07-03T02:54:54.985Z,1.00
2018-07-03T02:57:22.466Z,1.20
2018-07-03T02:59:49.772Z,1.80
2018-07-03T03:02:17.021Z,1.10
2018-07-03T03:04:44.413Z,1.27
2018-07-03T03:07:11.891Z,1.70
2018-07-03T03:09:39.164Z,1.20
2018-07-03T03:12:06.601Z,1.53
2018-07-03T03:14:34.175Z,1.57
2018-07-03T03:17:01.444Z,1.70
2018-07-03T03:19:28.708Z,1.30
2018-07-03T03:21:56.308Z,1.70
2018-07-03T03:24:23.700Z,1.23
2018-07-03T03:26:51.003Z,1.67
2018-07-03T03:29:18.998Z,1.53
2018-07-03T03:31:46.392Z,1.33
2018-07-03T03:34:13.827Z,1.60
2018-07-03T03:36:41.146Z,1.70
2018-07-03T03:39:08.921Z,1.77
2018-07-03T03:41:36.205Z,1.33
2018-07-03T03:44:03.493Z,1.33
2018-07-03T03:46:30.776Z,1.40
2018-07-03T03:48:58.202Z,1.80
2018-07-03T03:51:25.456Z,1.40
2018-07-03T03:53:52.799Z,1.53
2018-07-03T03:56:20.058Z,1.50
2018-07-03T03:58:47.355Z,2.00
2018-07-03T04:01:14.762Z,1.50
2018-07-03T04:03:42.407Z,1.90
2018-07-03T04:06:09.735Z,1.90
2018-07-03T04:08:37.362Z,2.13
2018-07-03T04:11:04.624Z,1.80
2018-07-03T04:13:31.849Z,2.10
2018-07-03T04:15:59.165Z,1.70
2018-07-03T04:18:31.230Z,2.23
2018-07-03T04:20:59.000Z,2.03
2018-07-03T04:23:26.315Z,2.20
2018-07-03T04:25:53.566Z,2.27
2018-07-03T04:28:21.028Z,2.10
2018-07-03T04:30:48.825Z,2.27
2018-07-03T04:33:16.480Z,2.50
2018-07-03T04:35:43.985Z,2.20
2018-07-03T04:38:11.426Z,2.17
2018-07-03T04:40:38.692Z,2.30
2018-07-03T04:43:06.111Z,2.13
2018-07-03T04:45:33.653Z,2.33
2018-07-03T04:48:01.043Z,2.43
2018-07-03T04:50:28.902Z,2.60
2018-07-03T04:52:56.254Z,2.57
2018-07-03T04:55:23.515Z,2.33
2018-07-03T04:57:50.959Z,3.10
2018-07-03T05:00:18.519Z,2.53
2018-07-03T05:02:45.796Z,3.00
2018-07-03T05:05:13.100Z,2.73
2018-07-03T14:12:22.115Z,1.67
2018-07-03T14:14:49.469Z,1.90
2018-07-03T14:17:16.800Z,2.40
2018-07-03T14:19:44.159Z,2.60
2018-07-03T14:22:11.469Z,2.53
2018-07-03T14:24:38.763Z,2.77
2018-07-03T14:27:06.064Z,2.50
2018-07-03T14:29:33.388Z,3.03
2018-07-03T14:32:00.650Z,2.80
2018-07-03T14:34:27.931Z,2.90
2018-07-03T14:36:55.205Z,3.27
2018-07-03T14:39:22.511Z,3.00
2018-07-03T14:41:49.799Z,2.97
2018-07-03T14:44:17.032Z,3.20
2018-07-03T14:46:44.285Z,3.33
2018-07-03T14:49:11.566Z,3.10
2018-07-03T14:51:38.820Z,3.07
2018-07-03T14:54:06.096Z,2.70
2018-07-03T14:56:33.380Z,3.40
2018-07-03T14:59:00.627Z,3.13
2018-07-03T15:01:28.383Z,3.03
2018-07-03T15:03:55.772Z,3.10
2018-07-03T15:06:29.810Z,3.40
2018-07-03T15:08:57.195Z,2.70
2018-07-03T15:11:24.473Z,2.80
2018-07-03T15:13:51.753Z,2.90
2018-07-03T15:16:19.046Z,2.90
2018-07-03T15:18:51.772Z,3.17
2018-07-03T15:21:19.050Z,3.97
2018-07-03T15:23:46.587Z,3.17
2018-07-03T15:26:13.844Z,3.53
2018-07-03T15:28:41.812Z,2.90
2018-07-03T15:31:09.078Z,2.87
2018-07-03T15:33:36.575Z,3.47
2018-07-03T15:36:03.874Z,3.53
2018-07-03T15:38:31.205Z,4.13
2018-07-03T15:40:58.542Z,4.97
2018-07-03T15:43:25.814Z,3.43
2018-07-03T15:45:53.171Z,17.70
2018-07-03T15:48:20.472Z,21.40
2018-07-03T15:50:47.772Z,4.30
2018-07-03T15:53:15.163Z,3.33
2018-07-03T15:55:43.401Z,4.10
2018-07-03T15:58:10.751Z,4.87
2018-07-03T16:00:38.034Z,5.20
2018-07-03T16:03:10.808Z,4.17
2018-07-03T16:05:44.595Z,3.30
2018-07-03T16:08:17.361Z,3.67
2018-07-03T16:10:44.625Z,3.10
2018-07-03T16:13:11.904Z,3.33
2018-07-03T16:15:39.239Z,3.43
2018-07-03T16:18:06.552Z,3.30
2018-07-03T16:20:38.733Z,3.30
2018-07-03T16:23:06.170Z,3.13
2018-07-03T16:25:33.636Z,3.30
2018-07-03T16:28:00.942Z,3.50
2018-07-03T16:30:28.249Z,3.33
2018-07-03T16:32:55.526Z,3.50
2018-07-03T16:35:22.868Z,4.87
2018-07-03T16:37:50.188Z,4.70
2018-07-03T16:40:17.468Z,3.90
2018-07-03T16:42:44.765Z,3.63
2018-07-03T16:45:12.076Z,3.87
2018-07-03T16:47:39.479Z,3.60
2018-07-03T16:50:06.794Z,3.63
2018-07-03T16:52:34.081Z,4.00
2018-07-03T16:55:01.380Z,3.80
2018-07-03T16:57:28.629Z,3.90
2018-07-03T16:59:55.907Z,4.17
2018-07-03T17:02:23.711Z,3.97
2018-07-03T17:04:51.039Z,3.90
2018-07-03T17:07:18.308Z,3.30
2018-07-03T17:09:45.588Z,3.60
2018-07-03T17:12:12.884Z,3.27
2018-07-03T17:14:40.216Z,3.90
2018-07-03T17:17:07.497Z,4.50
2018-07-03T17:19:37.012Z,4.30
2018-07-03T17:22:04.456Z,4.17
2018-07-03T17:24:31.740Z,4.70
2018-07-03T17:26:59.058Z,3.73
2018-07-03T17:29:26.429Z,4.53
2018-07-03T17:31:53.785Z,5.03
2018-07-03T17:34:21.786Z,4.53
2018-07-03T17:36:49.325Z,4.07
2018-07-03T17:39:17.915Z,3.90
2018-07-03T17:41:50.712Z,4.10
2018-07-03T17:44:23.681Z,3.67
2018-07-03T17:46:51.011Z,4.27
2018-07-03T17:49:18.275Z,4.20
2018-07-03T17:51:45.581Z,3.90
2018-07-03T17:54:12.916Z,4.40
2018-07-03T17:56:40.195Z,4.50
2018-07-03T17:59:07.547Z,3.97
2018-07-03T18:01:34.828Z,3.87
2018-07-03T18:04:02.839Z,4.07
2018-07-03T18:06:30.136Z,3.97
2018-07-03T18:08:57.470Z,4.33
2018-07-03T18:11:24.723Z,3.97
2018-07-03T18:13:52.080Z,4.17
2018-07-03T18:16:19.623Z,4.03
2018-07-03T18:18:51.335Z,4.10
2018-07-03T18:21:18.902Z,4.20
2018-07-03T18:23:46.067Z,4.13
2018-07-03T18:26:13.364Z,12.50
2018-07-03T18:28:40.688Z,8.00
2018-07-03T18:31:08.945Z,3.70
2018-07-03T18:33:36.327Z,3.97
2018-07-03T18:36:03.644Z,10.57
2018-07-03T18:38:31.059Z,5.27
2018-07-03T18:40:58.312Z,5.80
2018-07-03T18:43:25.666Z,3.97
2018-07-03T18:45:53.551Z,2.50
2018-07-03T18:48:20.963Z,12.23
2018-07-03T18:50:48.238Z,4.40
2018-07-03T18:53:16.379Z,4.00
2018-07-03T18:55:43.706Z,5.80
2018-07-03T18:58:11.012Z,11.67
2018-07-03T19:00:38.368Z,5.63
2018-07-03T19:03:05.676Z,3.50
2018-07-03T19:05:33.022Z,3.17
2018-07-03T19:08:00.488Z,2.50
2018-07-03T19:10:27.806Z,2.57
2018-07-03T19:12:55.112Z,3.67
2018-07-03T19:15:22.515Z,3.13
2018-07-03T19:17:49.883Z,2.50
2018-07-03T19:20:17.273Z,2.70
2018-07-03T19:22:44.573Z,2.90
2018-07-03T19:25:12.880Z,2.70
2018-07-03T19:27:40.234Z,2.40
2018-07-03T19:30:07.888Z,2.93
2018-07-03T19:32:35.195Z,2.60
2018-07-03T19:35:02.455Z,2.80
2018-07-03T19:37:29.798Z,2.67
2018-07-03T19:39:57.225Z,2.70
2018-07-03T19:42:24.569Z,2.43
2018-07-03T19:44:52.019Z,2.60
2018-07-03T19:47:19.566Z,2.83
2018-07-03T19:49:47.018Z,2.43
2018-07-03T19:52:14.466Z,2.63
2018-07-03T19:54:41.798Z,2.60
2018-07-03T19:57:09.189Z,2.80
2018-07-03T19:59:36.762Z,2.63
2018-07-03T20:02:04.215Z,2.50
2018-07-03T20:04:31.569Z,2.70
2018-07-03T20:06:59.015Z,2.50
2018-07-03T20:09:26.321Z,2.60
2018-07-03T20:11:53.707Z,2.93
2018-07-03T20:14:21.036Z,3.43
2018-07-03T20:16:48.348Z,3.00
2018-07-03T20:19:16.616Z,3.37
2018-07-03T20:21:45.144Z,3.27
2018-07-03T20:24:12.916Z,3.53
2018-07-03T20:26:42.523Z,3.80
2018-07-03T20:29:16.444Z,3.40
2018-07-03T20:31:44.294Z,3.33
2018-07-03T20:34:11.787Z,3.50
2018-07-03T20:36:39.198Z,4.23
2018-07-03T20:39:07.399Z,4.03
2018-07-03T20:41:34.718Z,3.90
2018-07-03T20:44:02.614Z,3.67
2018-07-03T20:46:29.926Z,3.37
2018-07-03T20:48:57.359Z,3.90
2018-07-03T20:51:25.428Z,4.03
2018-07-03T20:53:52.727Z,3.87
2018-07-03T20:56:20.185Z,3.80
2018-07-03T20:58:47.488Z,4.53
2018-07-03T21:01:14.784Z,4.13
2018-07-03T21:03:42.119Z,4.00
2018-07-03T21:06:09.573Z,4.27
2018-07-03T21:08:36.680Z,4.60
2018-07-03T21:11:03.949Z,4.53
2018-07-03T21:13:31.276Z,4.80
2018-07-03T21:15:58.525Z,4.50
2018-07-03T21:18:25.831Z,4.93
2018-07-03T21:20:53.125Z,4.80
2018-07-03T21:23:20.408Z,4.10
2018-07-03T21:25:47.880Z,4.77
2018-07-03T21:28:15.919Z,4.83
2018-07-03T21:30:43.292Z,4.70
2018-07-03T21:33:10.565Z,4.73
2018-07-03T21:35:37.860Z,4.47
2018-07-03T21:38:05.205Z,4.97
2018-07-03T21:40:32.607Z,4.90
2018-07-03T21:42:59.889Z,4.30
2018-07-03T21:45:27.227Z,5.10
2018-07-03T21:47:54.568Z,4.90
2018-07-03T21:50:21.972Z,5.03
2018-07-03T21:52:49.333Z,4.73
2018-07-03T21:55:17.230Z,4.70
2018-07-03T21:57:44.588Z,4.83
2018-07-03T22:00:11.846Z,5.60
2018-07-03T22:02:39.162Z,5.00
2018-07-03T22:05:06.761Z,4.77
2018-07-03T22:07:34.211Z,4.90
2018-07-03T22:10:01.553Z,4.83
2018-07-03T22:12:28.899Z,4.87
2018-07-03T22:14:56.181Z,4.97
2018-07-03T22:17:23.567Z,5.00
2018-07-03T22:19:50.960Z,5.27
2018-07-03T22:22:18.756Z,4.73
2018-07-03T22:24:52.429Z,4.97
2018-07-03T22:27:19.959Z,4.70
2018-07-03T22:29:47.251Z,5.20
2018-07-03T22:32:14.520Z,5.17
2018-07-03T22:34:41.824Z,5.57
2018-07-03T22:37:09.110Z,5.07
2018-07-03T22:39:36.424Z,5.10
2018-07-03T22:42:03.732Z,5.27
2018-07-03T22:44:31.023Z,5.60
2018-07-03T22:46:58.393Z,5.00
2018-07-03T22:49:25.693Z,5.53
2018-07-03T22:51:52.983Z,5.57
2018-07-03T22:54:20.295Z,5.40
2018-07-03T22:56:48.302Z,5.83
2018-07-03T22:59:15.583Z,5.57
2018-07-03T23:01:42.844Z,5.43
2018-07-03T23:04:10.130Z,5.50
2018-07-03T23:06:37.431Z,5.40
2018-07-03T23:09:06.049Z,5.17
2018-07-03T23:11:33.313Z,5.73
2018-07-03T23:14:00.579Z,5.60
2018-07-03T23:16:27.861Z,5.90
2018-07-03T23:18:55.211Z,5.90
2018-07-03T23:21:22.475Z,5.77
2018-07-03T23:23:49.728Z,5.60
2018-07-03T23:26:17.036Z,6.13
2018-07-03T23:28:44.408Z,5.60
2018-07-03T23:31:11.845Z,5.93
2018-07-03T23:33:39.172Z,6.60
2018-07-03T23:36:06.625Z,6.60
2018-07-03T23:38:33.928Z,6.43
2018-07-03T23:41:01.323Z,7.00
2018-07-03T23:43:28.636Z,5.87
2018-07-03T23:45:57.765Z,7.23
2018-07-03T23:48:31.176Z,6.03
2018-07-03T23:51:03.879Z,5.93
2018-07-03T23:53:36.668Z,6.17
2018-07-03T23:56:09.500Z,6.27
2018-07-03T23:58:42.224Z,6.30
